Rhosneigr, United Kingdom
Current Conditions -  °F | °C
As of 10:50 PM on Thursday 18 Dec 2014 (Local Time) from EGOV Reporting Station
Light Rain Light Rain  
Wind Chill: 50°   Ceiling: 6000
Heat Index: 50°   Visibility: 6mi
Dew Point: 46°   Wind: 21mph
Humidity: 87%   Direction: 270°W
Pressure: 29.68"   Gusts: 32mph
Location:  53.23°N, 4.52°W
Report Text: EGOV 182250Z 27018G28KT 9999 -RA FEW015 SCT035 BKN060 10/08 Q1005 BLU
Loading
Personal Weather Stations






























Interactive Weather Map New forecast layout! Learn more

10-Day Weather Forecast

Advertisements
Track Severe Weather on mobile